createdAt,value
2024-04-18T00:05:19.904Z,10.4629
2024-04-18T00:15:40.875Z,10.4386
2024-04-18T00:26:01.781Z,10.4096
2024-04-18T00:36:22.807Z,10.3812
2024-04-18T00:46:43.700Z,10.3520
2024-04-18T00:57:04.624Z,10.3161
2024-04-18T01:07:25.447Z,10.2869
2024-04-18T01:17:46.164Z,10.2543
2024-04-18T01:27:55.026Z,10.2262
2024-04-18T01:38:16.037Z,10.1990
2024-04-18T01:48:36.716Z,10.1671
2024-04-18T01:58:57.304Z,10.1404
2024-04-18T02:09:17.938Z,10.1135
2024-04-18T02:19:38.391Z,10.0880
2024-04-18T02:29:59.099Z,10.0645
2024-04-18T02:40:19.819Z,10.0386
2024-04-18T02:50:40.329Z,10.0208
2024-04-18T03:01:01.033Z,9.9945
2024-04-18T03:11:21.751Z,9.9820
2024-04-18T03:21:42.155Z,9.9594
2024-04-18T03:32:02.920Z,9.9380
2024-04-18T03:42:23.098Z,9.9190
2024-04-18T03:52:43.351Z,9.9024
2024-04-18T04:03:03.154Z,9.8876
2024-04-18T04:13:22.600Z,9.8647
2024-04-18T04:23:42.208Z,9.8502
2024-04-18T04:34:01.681Z,9.8333
2024-04-18T04:44:21.223Z,9.8151
2024-04-18T04:54:40.628Z,9.7939
2024-04-18T05:05:00.339Z,9.7790
2024-04-18T05:15:20.096Z,9.7618
2024-04-18T05:25:40.276Z,9.7378
2024-04-18T05:36:00.634Z,9.7157
2024-04-18T05:46:20.866Z,9.6951
2024-04-18T05:56:41.101Z,9.6659
2024-04-18T06:07:01.626Z,9.6329
2024-04-18T06:17:21.628Z,9.6031
2024-04-18T06:27:41.929Z,9.5643
2024-04-18T06:38:02.019Z,9.5278
2024-04-18T06:48:22.201Z,9.4900
2024-04-18T06:58:42.265Z,9.4431
2024-04-18T07:09:02.824Z,9.4035
2024-04-18T07:19:23.103Z,9.3555
2024-04-18T07:29:44.049Z,9.3188
2024-04-18T07:39:52.804Z,9.2762
2024-04-18T07:50:12.544Z,9.2376
2024-04-18T08:00:34.843Z,9.2012
2024-04-18T08:11:00.178Z,9.1606
2024-04-18T08:20:56.447Z,9.1287
2024-04-18T08:31:16.868Z,9.0939
2024-04-18T08:41:40.191Z,9.0506
2024-04-18T08:51:50.521Z,9.0160
2024-04-18T09:02:10.921Z,8.9792
2024-04-18T09:12:31.120Z,8.9418
2024-04-18T09:22:50.975Z,8.8969
2024-04-18T09:33:11.007Z,8.8378
2024-04-18T09:43:30.719Z,8.7894
2024-04-18T09:53:50.782Z,8.7284
2024-04-18T10:03:59.552Z,8.6658
2024-04-18T10:14:19.657Z,8.5820
2024-04-18T10:24:39.910Z,8.4851
2024-04-18T10:34:59.987Z,8.4469
2024-04-18T10:45:20.496Z,8.4367
2024-04-18T10:55:40.652Z,8.4461
2024-04-18T11:06:00.942Z,8.4602
2024-04-18T11:16:21.824Z,8.4943
2024-04-18T11:26:42.468Z,8.5263
2024-04-18T11:37:02.478Z,8.5606
2024-04-18T11:47:22.787Z,8.5980
2024-04-18T11:57:43.604Z,8.6273
2024-04-18T12:08:03.746Z,8.6588
2024-04-18T12:18:24.484Z,8.6737
2024-04-18T12:28:44.339Z,8.6914
2024-04-18T12:39:07.013Z,8.7216
2024-04-18T12:49:15.552Z,8.7544
2024-04-18T12:59:36.397Z,8.8053
2024-04-18T13:09:57.965Z,8.8498
2024-04-18T13:20:05.911Z,8.9129
2024-04-18T13:30:26.450Z,8.9761
2024-04-18T13:40:35.308Z,9.0469
2024-04-18T13:50:55.395Z,9.1241
2024-04-18T14:01:15.903Z,9.2053
2024-04-18T14:11:36.108Z,9.2767
2024-04-18T14:21:56.339Z,9.3488
2024-04-18T14:32:16.754Z,9.3506
2024-04-18T14:42:37.647Z,9.2222
2024-04-18T14:52:58.414Z,9.0722
2024-04-18T15:03:18.611Z,9.0551
2024-04-18T15:13:39.174Z,9.0678
2024-04-18T15:23:59.545Z,9.0737
2024-04-18T15:34:20.212Z,9.0688
2024-04-18T15:44:40.810Z,9.0851
2024-04-18T15:55:09.092Z,9.1041
2024-04-18T16:05:14.656Z,9.1204
2024-04-18T16:15:35.144Z,9.1351
2024-04-18T16:25:55.379Z,9.1465
2024-04-18T16:36:27.592Z,9.1610
2024-04-18T16:46:29.437Z,9.1673
2024-04-18T16:56:49.658Z,9.1800
2024-04-18T17:07:10.691Z,9.1882
2024-04-18T17:17:31.280Z,9.2029
2024-04-18T17:27:52.174Z,9.2178
2024-04-18T17:38:12.503Z,9.2257
2024-04-18T17:48:33.428Z,9.2322
2024-04-18T17:58:54.109Z,9.2398
2024-04-18T18:09:14.438Z,9.2398
2024-04-18T18:19:34.505Z,9.2378
2024-04-18T18:29:54.355Z,9.2355
2024-04-18T18:40:14.839Z,9.2357
2024-04-18T18:50:34.917Z,9.2349
2024-04-18T19:00:44.879Z,9.2267
2024-04-18T19:11:05.657Z,9.2151
2024-04-18T19:21:25.877Z,9.2031
2024-04-18T19:31:46.346Z,9.1810
2024-04-18T19:42:06.583Z,9.1431
2024-04-18T19:52:26.704Z,9.1016
2024-04-18T20:02:47.432Z,9.0408
2024-04-18T20:13:07.238Z,8.9831
2024-04-18T20:23:27.510Z,8.9214
2024-04-18T20:33:47.266Z,8.8798
2024-04-18T20:44:07.340Z,8.8455
2024-04-18T20:54:27.688Z,8.8353
2024-04-18T21:04:48.280Z,8.8124
2024-04-18T21:15:08.895Z,8.7890
2024-04-18T21:25:29.552Z,8.7673
2024-04-18T21:35:50.356Z,8.7580
2024-04-18T21:46:10.609Z,8.7406
2024-04-18T21:56:31.147Z,8.7263
2024-04-18T22:06:51.521Z,8.7014
2024-04-18T22:17:11.774Z,8.6900
2024-04-18T22:27:32.214Z,8.6745
2024-04-18T22:37:52.933Z,8.6643
2024-04-18T22:48:13.640Z,8.6524
2024-04-18T22:58:34.108Z,8.6418
2024-04-18T23:08:54.194Z,8.6312
2024-04-18T23:19:15.282Z,8.6269
2024-04-18T23:29:35.495Z,8.6124
2024-04-18T23:39:55.338Z,8.6004
2024-04-18T23:50:15.832Z,8.5837
